sensor_id;sensor_type;location;lat;lon;timestamp;P1;durP1;ratioP1;P2;durP2;ratioP2
27979;SDS011;15315;50.836;4.430;2023-05-02T00:03:57;85.13;;;38.67;;
27979;SDS011;15315;50.836;4.430;2023-05-02T00:13:57;91.88;;;40.97;;
27979;SDS011;15315;50.836;4.430;2023-05-02T00:23:58;84.75;;;38.30;;
27979;SDS011;15315;50.836;4.430;2023-05-02T00:33:59;74.88;;;33.58;;
27979;SDS011;15315;50.836;4.430;2023-05-02T00:43:59;66.10;;;31.58;;
27979;SDS011;15315;50.836;4.430;2023-05-02T00:54:00;65.10;;;31.80;;
27979;SDS011;15315;50.836;4.430;2023-05-02T01:14:19;64.93;;;31.90;;
27979;SDS011;15315;50.836;4.430;2023-05-02T01:24:29;64.72;;;31.65;;
27979;SDS011;15315;50.836;4.430;2023-05-02T01:34:42;57.20;;;29.52;;
27979;SDS011;15315;50.836;4.430;2023-05-02T01:44:45;53.58;;;29.67;;
27979;SDS011;15315;50.836;4.430;2023-05-02T01:54:47;53.40;;;28.77;;
27979;SDS011;15315;50.836;4.430;2023-05-02T02:04:50;51.88;;;26.95;;
27979;SDS011;15315;50.836;4.430;2023-05-02T02:15:56;56.92;;;28.10;;
27979;SDS011;15315;50.836;4.430;2023-05-02T02:25:27;54.47;;;27.58;;
27979;SDS011;15315;50.836;4.430;2023-05-02T02:35:30;58.22;;;30.58;;
27979;SDS011;15315;50.836;4.430;2023-05-02T02:55:58;56.47;;;29.10;;
27979;SDS011;15315;50.836;4.430;2023-05-02T03:06:02;51.72;;;27.52;;
27979;SDS011;15315;50.836;4.430;2023-05-02T03:16:11;53.53;;;26.70;;
27979;SDS011;15315;50.836;4.430;2023-05-02T03:26:30;52.72;;;27.33;;
27979;SDS011;15315;50.836;4.430;2023-05-02T03:36:30;58.28;;;27.10;;
27979;SDS011;15315;50.836;4.430;2023-05-02T03:46:31;51.75;;;27.08;;
27979;SDS011;15315;50.836;4.430;2023-05-02T03:56:31;54.90;;;28.27;;
27979;SDS011;15315;50.836;4.430;2023-05-02T04:06:31;55.05;;;27.48;;
27979;SDS011;15315;50.836;4.430;2023-05-02T04:16:32;64.03;;;30.60;;
27979;SDS011;15315;50.836;4.430;2023-05-02T04:26:32;59.78;;;30.92;;
27979;SDS011;15315;50.836;4.430;2023-05-02T04:36:33;66.65;;;30.73;;
27979;SDS011;15315;50.836;4.430;2023-05-02T04:46:33;64.10;;;28.83;;
27979;SDS011;15315;50.836;4.430;2023-05-02T04:56:34;63.03;;;30.33;;
27979;SDS011;15315;50.836;4.430;2023-05-02T05:06:34;68.13;;;32.28;;
27979;SDS011;15315;50.836;4.430;2023-05-02T05:16:34;74.85;;;34.72;;
27979;SDS011;15315;50.836;4.430;2023-05-02T05:26:36;72.25;;;33.25;;
27979;SDS011;15315;50.836;4.430;2023-05-02T05:36:38;65.35;;;33.63;;
27979;SDS011;15315;50.836;4.430;2023-05-02T05:46:39;59.85;;;30.45;;
27979;SDS011;15315;50.836;4.430;2023-05-02T05:56:39;60.20;;;28.70;;
27979;SDS011;15315;50.836;4.430;2023-05-02T06:06:40;53.28;;;28.98;;
27979;SDS011;15315;50.836;4.430;2023-05-02T06:16:40;52.80;;;28.27;;
27979;SDS011;15315;50.836;4.430;2023-05-02T06:26:41;62.60;;;30.15;;
27979;SDS011;15315;50.836;4.430;2023-05-02T06:36:41;55.67;;;30.48;;
27979;SDS011;15315;50.836;4.430;2023-05-02T06:46:42;55.65;;;31.27;;
27979;SDS011;15315;50.836;4.430;2023-05-02T06:56:42;56.50;;;28.90;;
27979;SDS011;15315;50.836;4.430;2023-05-02T07:06:43;60.22;;;28.95;;
27979;SDS011;15315;50.836;4.430;2023-05-02T07:16:43;41.03;;;24.65;;
27979;SDS011;15315;50.836;4.430;2023-05-02T07:26:43;41.03;;;21.42;;
27979;SDS011;15315;50.836;4.430;2023-05-02T07:36:44;27.85;;;15.60;;
27979;SDS011;15315;50.836;4.430;2023-05-02T07:46:44;30.23;;;17.13;;
27979;SDS011;15315;50.836;4.430;2023-05-02T07:56:44;31.52;;;18.52;;
27979;SDS011;15315;50.836;4.430;2023-05-02T08:06:46;28.80;;;17.63;;
27979;SDS011;15315;50.836;4.430;2023-05-02T08:16:46;29.80;;;15.77;;
27979;SDS011;15315;50.836;4.430;2023-05-02T08:26:46;15.90;;;9.63;;
27979;SDS011;15315;50.836;4.430;2023-05-02T08:36:47;13.40;;;6.47;;
27979;SDS011;15315;50.836;4.430;2023-05-02T08:46:47;11.02;;;4.50;;
27979;SDS011;15315;50.836;4.430;2023-05-02T08:56:50;12.38;;;4.13;;
27979;SDS011;15315;50.836;4.430;2023-05-02T09:06:51;21.70;;;4.07;;
27979;SDS011;15315;50.836;4.430;2023-05-02T09:16:56;12.43;;;3.85;;
27979;SDS011;15315;50.836;4.430;2023-05-02T09:27:01;12.32;;;5.03;;
27979;SDS011;15315;50.836;4.430;2023-05-02T09:37:03;14.80;;;7.63;;
27979;SDS011;15315;50.836;4.430;2023-05-02T09:47:04;21.75;;;7.95;;
27979;SDS011;15315;50.836;4.430;2023-05-02T09:57:07;12.65;;;6.75;;
27979;SDS011;15315;50.836;4.430;2023-05-02T10:07:09;10.45;;;5.70;;
27979;SDS011;15315;50.836;4.430;2023-05-02T10:17:13;8.80;;;5.40;;
27979;SDS011;15315;50.836;4.430;2023-05-02T10:27:20;9.93;;;4.43;;
27979;SDS011;15315;50.836;4.430;2023-05-02T10:37:21;10.77;;;4.40;;
27979;SDS011;15315;50.836;4.430;2023-05-02T10:47:23;9.90;;;4.25;;
27979;SDS011;15315;50.836;4.430;2023-05-02T10:57:25;11.15;;;4.22;;
27979;SDS011;15315;50.836;4.430;2023-05-02T11:07:26;8.15;;;3.95;;
27979;SDS011;15315;50.836;4.430;2023-05-02T11:17:27;10.27;;;4.68;;
27979;SDS011;15315;50.836;4.430;2023-05-02T11:37:28;11.63;;;5.20;;
27979;SDS011;15315;50.836;4.430;2023-05-02T11:47:31;16.27;;;5.50;;
27979;SDS011;15315;50.836;4.430;2023-05-02T11:57:32;13.20;;;4.87;;
27979;SDS011;15315;50.836;4.430;2023-05-02T12:07:45;12.27;;;5.63;;
27979;SDS011;15315;50.836;4.430;2023-05-02T12:17:48;11.00;;;3.85;;
27979;SDS011;15315;50.836;4.430;2023-05-02T12:27:57;13.82;;;3.83;;
27979;SDS011;15315;50.836;4.430;2023-05-02T12:48:20;8.88;;;3.78;;
27979;SDS011;15315;50.836;4.430;2023-05-02T12:58:22;9.77;;;4.07;;
27979;SDS011;15315;50.836;4.430;2023-05-02T13:08:25;16.02;;;3.65;;
27979;SDS011;15315;50.836;4.430;2023-05-02T13:18:25;17.15;;;4.65;;
27979;SDS011;15315;50.836;4.430;2023-05-02T13:28:29;7.50;;;3.50;;
27979;SDS011;15315;50.836;4.430;2023-05-02T13:38:32;12.15;;;4.40;;
27979;SDS011;15315;50.836;4.430;2023-05-02T13:48:33;11.20;;;4.00;;
27979;SDS011;15315;50.836;4.430;2023-05-02T13:58:36;12.27;;;4.45;;
27979;SDS011;15315;50.836;4.430;2023-05-02T14:08:36;9.55;;;3.95;;
27979;SDS011;15315;50.836;4.430;2023-05-02T14:18:37;9.65;;;3.88;;
27979;SDS011;15315;50.836;4.430;2023-05-02T14:28:37;12.18;;;3.83;;
27979;SDS011;15315;50.836;4.430;2023-05-02T14:38:38;9.48;;;3.55;;
27979;SDS011;15315;50.836;4.430;2023-05-02T14:48:38;12.95;;;4.55;;
27979;SDS011;15315;50.836;4.430;2023-05-02T14:58:38;10.63;;;5.00;;
27979;SDS011;15315;50.836;4.430;2023-05-02T15:08:39;15.43;;;5.10;;
27979;SDS011;15315;50.836;4.430;2023-05-02T15:18:39;10.65;;;4.90;;
27979;SDS011;15315;50.836;4.430;2023-05-02T15:28:40;15.50;;;5.38;;
27979;SDS011;15315;50.836;4.430;2023-05-02T15:38:40;18.92;;;5.28;;
27979;SDS011;15315;50.836;4.430;2023-05-02T15:48:41;10.90;;;5.20;;
27979;SDS011;15315;50.836;4.430;2023-05-02T15:58:42;10.05;;;5.00;;
27979;SDS011;15315;50.836;4.430;2023-05-02T16:08:42;14.80;;;5.32;;
27979;SDS011;15315;50.836;4.430;2023-05-02T16:18:43;13.13;;;4.97;;
27979;SDS011;15315;50.836;4.430;2023-05-02T16:28:43;16.75;;;5.85;;
27979;SDS011;15315;50.836;4.430;2023-05-02T16:38:45;12.35;;;5.40;;
27979;SDS011;15315;50.836;4.430;2023-05-02T16:48:45;14.57;;;5.50;;
27979;SDS011;15315;50.836;4.430;2023-05-02T16:58:45;12.80;;;5.35;;
27979;SDS011;15315;50.836;4.430;2023-05-02T17:08:46;12.32;;;5.80;;
27979;SDS011;15315;50.836;4.430;2023-05-02T17:18:46;13.10;;;6.07;;
27979;SDS011;15315;50.836;4.430;2023-05-02T17:28:47;12.73;;;4.90;;
27979;SDS011;15315;50.836;4.430;2023-05-02T17:38:49;14.25;;;5.68;;
27979;SDS011;15315;50.836;4.430;2023-05-02T17:48:49;15.23;;;5.45;;
27979;SDS011;15315;50.836;4.430;2023-05-02T17:58:50;13.90;;;5.18;;
27979;SDS011;15315;50.836;4.430;2023-05-02T18:08:51;16.80;;;5.18;;
27979;SDS011;15315;50.836;4.430;2023-05-02T18:18:51;16.88;;;4.63;;
27979;SDS011;15315;50.836;4.430;2023-05-02T18:28:52;17.33;;;4.78;;
27979;SDS011;15315;50.836;4.430;2023-05-02T18:38:53;13.38;;;4.43;;
27979;SDS011;15315;50.836;4.430;2023-05-02T18:48:56;16.45;;;4.85;;
27979;SDS011;15315;50.836;4.430;2023-05-02T18:58:56;11.18;;;4.80;;
27979;SDS011;15315;50.836;4.430;2023-05-02T19:08:57;15.57;;;4.72;;
27979;SDS011;15315;50.836;4.430;2023-05-02T19:18:58;19.27;;;5.05;;
27979;SDS011;15315;50.836;4.430;2023-05-02T19:28:58;19.80;;;4.78;;
27979;SDS011;15315;50.836;4.430;2023-05-02T19:38:59;12.50;;;4.53;;
27979;SDS011;15315;50.836;4.430;2023-05-02T19:48:59;13.15;;;4.57;;
27979;SDS011;15315;50.836;4.430;2023-05-02T19:59:00;14.98;;;4.60;;
27979;SDS011;15315;50.836;4.430;2023-05-02T20:09:00;14.57;;;4.90;;
27979;SDS011;15315;50.836;4.430;2023-05-02T20:19:00;9.88;;;4.60;;
27979;SDS011;15315;50.836;4.430;2023-05-02T20:29:01;15.55;;;4.63;;
27979;SDS011;15315;50.836;4.430;2023-05-02T20:39:03;13.30;;;5.20;;
27979;SDS011;15315;50.836;4.430;2023-05-02T20:49:08;15.75;;;4.97;;
27979;SDS011;15315;50.836;4.430;2023-05-02T20:59:08;13.43;;;4.80;;
27979;SDS011;15315;50.836;4.430;2023-05-02T21:09:09;18.60;;;4.45;;
27979;SDS011;15315;50.836;4.430;2023-05-02T21:19:09;14.73;;;5.05;;
27979;SDS011;15315;50.836;4.430;2023-05-02T21:29:09;16.13;;;4.72;;
27979;SDS011;15315;50.836;4.430;2023-05-02T21:39:10;13.45;;;4.80;;
27979;SDS011;15315;50.836;4.430;2023-05-02T21:49:10;14.30;;;4.13;;
27979;SDS011;15315;50.836;4.430;2023-05-02T21:59:11;10.02;;;4.05;;
27979;SDS011;15315;50.836;4.430;2023-05-02T22:09:11;15.38;;;4.45;;
27979;SDS011;15315;50.836;4.430;2023-05-02T22:19:12;15.13;;;4.30;;
27979;SDS011;15315;50.836;4.430;2023-05-02T22:29:16;12.00;;;3.92;;
27979;SDS011;15315;50.836;4.430;2023-05-02T22:39:17;18.10;;;4.70;;
27979;SDS011;15315;50.836;4.430;2023-05-02T22:49:17;16.77;;;4.10;;
27979;SDS011;15315;50.836;4.430;2023-05-02T22:59:18;15.52;;;4.03;;
27979;SDS011;15315;50.836;4.430;2023-05-02T23:09:19;12.18;;;4.10;;
27979;SDS011;15315;50.836;4.430;2023-05-02T23:19:19;11.02;;;4.32;;
27979;SDS011;15315;50.836;4.430;2023-05-02T23:29:20;14.27;;;3.88;;
27979;SDS011;15315;50.836;4.430;2023-05-02T23:39:21;10.85;;;4.18;;
27979;SDS011;15315;50.836;4.430;2023-05-02T23:49:21;13.88;;;3.50;;
27979;SDS011;15315;50.836;4.430;2023-05-02T23:59:22;8.60;;;3.85;;
